Detall de PIREP

Printer-friendly versionPDF version

[2013/05/17 15:51:00]
Flight IATA:CT2112
Pilot Number:044
Company ICAO:CAT
Aircraft Type:AT72/F
PAX:45
Departing Airport: LEVC
Destination Airport: LEZL
Alternate Airport:LEMG
Online: VATSIM
Route:ASTRO B28 YES R47 BLN
Flight Level:F230
No Slew and time accel
No pause
Crash detect
Detect pilot in Cockpit between each 30 and 45 minutes
15:51 Zero fuel Weight: 39664 Lbs, Fuel Weight: 5493 Lbs
15:51 VATSIM:LEVC 171530Z VRB03KT 9999 FEW030 20/09 Q1000 NOSIG
15:51 VATSIM:LEZL 171530Z 24014KT 200V280 9000 VCSH SCT029TCU SCT036 17/12 Q1003 TEMPO 4000 SHRA
15:51 VOICE CATALONIAN
15:53 Parking Brakes off
16:09 Take-off
16:09 Take off Weight: 45029 Lbs
16:09 Wind: 206º @ 013 Knots Heading: 289º
16:09 POS N39º 29´ 23´´ W000º 29´ 00´´
16:09 Flaps:1 at 137 Knots
16:09 Gear Up: 137 Knots
16:09 Flaps:0 at 134 Knots
16:24 Wind:215º@043 Knots Heading: 229º Ground Speed: 193 Knots Altitude 22083 ft
16:24 TOC
16:24 Fuel Weight: 4834 Lb
16:39 Wind:227º@056 Knots Heading: 230º Ground Speed: 220 Knots Altitude 22667 ft
16:54 Wind:228º@047 Knots Heading: 252º Ground Speed: 235 Knots Altitude 22795 ft
16:59 TOD
16:59 Fuel Weight: 3798 Lb
17:09 Wind:240º@024 Knots Heading: 252º Ground Speed: 179 Knots Altitude 9622 ft
17:24 Wind:272º@021 Knots Heading: 245º Ground Speed: 176 Knots Altitude 7732 ft
17:32 Flaps:1 at 163 Knots
17:33 Flaps:2 at 140 Knots
17:35 Gear Down: 127 Knots
17:39 Wind:314º@013 Knots Heading: 274º Ground Speed: 112 Knots Altitude 144 ft
17:39 TouchDown:Rate -58 ft/min Speed: 111 Knots
17:39 VATSIM:LEZL 171730Z 29013KT 9999 SCT040 17/08 Q1004 NOSIG
17:39 Land
17:39 Wind:314º@013 Knots
17:39 Heading: 273º
17:39 Flight Duration: 01:30
17:39 Landing Weight: 43026 Lbs
17:39 POS N37º 25´ 04´´ W005º 54´ 06´´
17:41 Parking brakes on
17:41 Block to Block Duration: 01:48
17:41 Final Fuel: 3353 Lbls
17:41 Spent Fuel: 2140 Lbls
17:41 Flight Length: 302 NM
17:41 TOD Land Length: 120 NM

Exportar CSV

Powered by Drupal - Modified by Danger4k